sensor_id;sensor_type;location;lat;lon;timestamp;P1;durP1;ratioP1;P2;durP2;ratioP2
69989;SDS011;57331;52.054;5.294;2022-09-13T00:01:47;9.55;;;5.50;;
69989;SDS011;57331;52.054;5.294;2022-09-13T00:04:16;11.25;;;5.85;;
69989;SDS011;57331;52.054;5.294;2022-09-13T00:06:43;9.65;;;5.00;;
69989;SDS011;57331;52.054;5.294;2022-09-13T00:09:10;9.57;;;5.82;;
69989;SDS011;57331;52.054;5.294;2022-09-13T00:11:37;10.45;;;5.68;;
69989;SDS011;57331;52.054;5.294;2022-09-13T00:14:05;10.68;;;5.90;;
69989;SDS011;57331;52.054;5.294;2022-09-13T00:16:33;11.13;;;4.70;;
69989;SDS011;57331;52.054;5.294;2022-09-13T00:19:00;10.27;;;5.80;;
69989;SDS011;57331;52.054;5.294;2022-09-13T00:21:27;12.45;;;6.00;;
69989;SDS011;57331;52.054;5.294;2022-09-13T00:23:55;14.95;;;5.70;;
69989;SDS011;57331;52.054;5.294;2022-09-13T00:26:23;10.13;;;5.22;;
69989;SDS011;57331;52.054;5.294;2022-09-13T00:28:53;10.73;;;5.70;;
69989;SDS011;57331;52.054;5.294;2022-09-13T00:31:22;9.02;;;4.53;;
69989;SDS011;57331;52.054;5.294;2022-09-13T00:33:52;7.75;;;4.38;;
69989;SDS011;57331;52.054;5.294;2022-09-13T00:36:23;9.55;;;5.20;;
69989;SDS011;57331;52.054;5.294;2022-09-13T00:38:50;12.15;;;5.70;;
69989;SDS011;57331;52.054;5.294;2022-09-13T00:41:20;11.85;;;5.68;;
69989;SDS011;57331;52.054;5.294;2022-09-13T00:43:51;8.98;;;5.72;;
69989;SDS011;57331;52.054;5.294;2022-09-13T00:46:39;10.65;;;6.10;;
69989;SDS011;57331;52.054;5.294;2022-09-13T00:51:44;9.85;;;6.15;;
69989;SDS011;57331;52.054;5.294;2022-09-13T00:54:18;9.05;;;5.82;;
69989;SDS011;57331;52.054;5.294;2022-09-13T00:56:50;8.85;;;4.38;;
69989;SDS011;57331;52.054;5.294;2022-09-13T00:59:24;9.05;;;5.40;;
69989;SDS011;57331;52.054;5.294;2022-09-13T01:01:57;8.50;;;5.00;;
69989;SDS011;57331;52.054;5.294;2022-09-13T01:04:27;8.90;;;4.20;;
69989;SDS011;57331;52.054;5.294;2022-09-13T01:06:58;13.85;;;5.30;;
69989;SDS011;57331;52.054;5.294;2022-09-13T01:09:31;8.50;;;4.75;;
69989;SDS011;57331;52.054;5.294;2022-09-13T01:12:02;9.40;;;5.43;;
69989;SDS011;57331;52.054;5.294;2022-09-13T01:14:46;9.73;;;5.40;;
69989;SDS011;57331;52.054;5.294;2022-09-13T01:17:15;9.77;;;5.82;;
69989;SDS011;57331;52.054;5.294;2022-09-13T01:19:43;10.57;;;5.03;;
69989;SDS011;57331;52.054;5.294;2022-09-13T01:25:22;9.90;;;5.25;;
69989;SDS011;57331;52.054;5.294;2022-09-13T01:39:11;14.10;;;5.32;;
69989;SDS011;57331;52.054;5.294;2022-09-13T01:41:47;13.43;;;5.63;;
69989;SDS011;57331;52.054;5.294;2022-09-13T01:44:31;10.80;;;5.53;;
69989;SDS011;57331;52.054;5.294;2022-09-13T01:47:22;10.20;;;5.68;;
69989;SDS011;57331;52.054;5.294;2022-09-13T01:49:57;9.45;;;5.57;;
69989;SDS011;57331;52.054;5.294;2022-09-13T01:52:48;8.73;;;4.90;;
69989;SDS011;57331;52.054;5.294;2022-09-13T01:55:25;14.35;;;5.22;;
69989;SDS011;57331;52.054;5.294;2022-09-13T02:00:37;7.40;;;4.15;;
69989;SDS011;57331;52.054;5.294;2022-09-13T02:03:20;9.23;;;5.43;;
69989;SDS011;57331;52.054;5.294;2022-09-13T02:06:29;12.77;;;5.25;;
69989;SDS011;57331;52.054;5.294;2022-09-13T02:08:55;9.68;;;5.57;;
69989;SDS011;57331;52.054;5.294;2022-09-13T02:11:28;10.25;;;5.07;;
69989;SDS011;57331;52.054;5.294;2022-09-13T02:16:33;12.50;;;6.88;;
69989;SDS011;57331;52.054;5.294;2022-09-13T02:19:06;14.30;;;7.63;;
69989;SDS011;57331;52.054;5.294;2022-09-13T02:21:41;13.15;;;7.50;;
69989;SDS011;57331;52.054;5.294;2022-09-13T02:24:12;15.70;;;7.70;;
69989;SDS011;57331;52.054;5.294;2022-09-13T02:26:45;15.95;;;7.50;;
69989;SDS011;57331;52.054;5.294;2022-09-13T02:29:16;17.60;;;8.07;;
69989;SDS011;57331;52.054;5.294;2022-09-13T02:31:49;16.85;;;8.00;;
69989;SDS011;57331;52.054;5.294;2022-09-13T02:34:27;14.88;;;7.80;;
69989;SDS011;57331;52.054;5.294;2022-09-13T02:37:05;14.95;;;7.18;;
69989;SDS011;57331;52.054;5.294;2022-09-13T02:39:35;12.13;;;6.38;;
69989;SDS011;57331;52.054;5.294;2022-09-13T02:42:16;11.15;;;6.72;;
69989;SDS011;57331;52.054;5.294;2022-09-13T02:44:49;12.48;;;7.03;;
69989;SDS011;57331;52.054;5.294;2022-09-13T02:50:19;13.32;;;7.13;;
69989;SDS011;57331;52.054;5.294;2022-09-13T02:53:10;10.63;;;6.55;;
69989;SDS011;57331;52.054;5.294;2022-09-13T02:56:03;10.77;;;6.28;;
69989;SDS011;57331;52.054;5.294;2022-09-13T03:01:20;13.60;;;7.10;;
69989;SDS011;57331;52.054;5.294;2022-09-13T03:03:47;11.18;;;6.57;;
69989;SDS011;57331;52.054;5.294;2022-09-13T03:06:21;11.85;;;6.80;;
69989;SDS011;57331;52.054;5.294;2022-09-13T03:08:52;11.90;;;6.38;;
69989;SDS011;57331;52.054;5.294;2022-09-13T03:17:52;11.88;;;6.60;;
69989;SDS011;57331;52.054;5.294;2022-09-13T03:22:45;11.60;;;6.45;;
69989;SDS011;57331;52.054;5.294;2022-09-13T03:25:39;14.38;;;6.28;;
69989;SDS011;57331;52.054;5.294;2022-09-13T03:31:32;14.38;;;5.35;;
69989;SDS011;57331;52.054;5.294;2022-09-13T03:36:41;11.02;;;6.45;;
69989;SDS011;57331;52.054;5.294;2022-09-13T03:42:36;10.45;;;5.13;;
69989;SDS011;57331;52.054;5.294;2022-09-13T03:45:11;9.77;;;5.38;;
69989;SDS011;57331;52.054;5.294;2022-09-13T03:47:43;12.30;;;6.10;;
69989;SDS011;57331;52.054;5.294;2022-09-13T03:50:15;10.10;;;5.40;;
69989;SDS011;57331;52.054;5.294;2022-09-13T03:52:49;10.02;;;6.10;;
69989;SDS011;57331;52.054;5.294;2022-09-13T03:55:20;13.25;;;6.13;;
69989;SDS011;57331;52.054;5.294;2022-09-13T03:57:47;10.98;;;6.60;;
69989;SDS011;57331;52.054;5.294;2022-09-13T04:00:14;11.80;;;6.90;;
69989;SDS011;57331;52.054;5.294;2022-09-13T04:02:43;12.93;;;6.57;;
69989;SDS011;57331;52.054;5.294;2022-09-13T04:05:10;11.65;;;6.95;;
69989;SDS011;57331;52.054;5.294;2022-09-13T04:07:38;11.60;;;5.85;;
69989;SDS011;57331;52.054;5.294;2022-09-13T04:10:05;14.15;;;6.70;;
69989;SDS011;57331;52.054;5.294;2022-09-13T04:12:38;13.07;;;6.88;;
69989;SDS011;57331;52.054;5.294;2022-09-13T04:15:06;12.48;;;6.00;;
69989;SDS011;57331;52.054;5.294;2022-09-13T04:17:36;14.15;;;7.35;;
69989;SDS011;57331;52.054;5.294;2022-09-13T04:20:02;11.70;;;6.53;;
69989;SDS011;57331;52.054;5.294;2022-09-13T04:22:30;14.52;;;7.18;;
69989;SDS011;57331;52.054;5.294;2022-09-13T04:24:59;10.40;;;6.35;;
69989;SDS011;57331;52.054;5.294;2022-09-13T04:27:28;12.80;;;7.30;;
69989;SDS011;57331;52.054;5.294;2022-09-13T04:29:55;14.00;;;6.97;;
69989;SDS011;57331;52.054;5.294;2022-09-13T04:32:22;14.43;;;7.72;;
69989;SDS011;57331;52.054;5.294;2022-09-13T04:34:49;14.75;;;7.72;;
69989;SDS011;57331;52.054;5.294;2022-09-13T04:37:17;15.45;;;7.82;;
69989;SDS011;57331;52.054;5.294;2022-09-13T04:39:43;14.52;;;7.65;;
69989;SDS011;57331;52.054;5.294;2022-09-13T04:42:12;15.25;;;7.63;;
69989;SDS011;57331;52.054;5.294;2022-09-13T04:44:39;14.27;;;7.97;;
69989;SDS011;57331;52.054;5.294;2022-09-13T04:47:07;12.68;;;8.05;;
69989;SDS011;57331;52.054;5.294;2022-09-13T04:49:34;15.57;;;8.15;;
69989;SDS011;57331;52.054;5.294;2022-09-13T04:52:00;15.30;;;8.40;;
69989;SDS011;57331;52.054;5.294;2022-09-13T04:54:30;15.57;;;8.30;;
69989;SDS011;57331;52.054;5.294;2022-09-13T04:56:57;15.98;;;8.68;;
69989;SDS011;57331;52.054;5.294;2022-09-13T04:59:24;25.45;;;7.75;;
69989;SDS011;57331;52.054;5.294;2022-09-13T05:01:51;13.25;;;7.10;;
69989;SDS011;57331;52.054;5.294;2022-09-13T05:04:18;15.02;;;8.40;;
69989;SDS011;57331;52.054;5.294;2022-09-13T05:06:45;16.88;;;7.90;;
69989;SDS011;57331;52.054;5.294;2022-09-13T05:09:14;14.45;;;7.82;;
69989;SDS011;57331;52.054;5.294;2022-09-13T05:11:41;13.55;;;7.10;;
69989;SDS011;57331;52.054;5.294;2022-09-13T05:14:09;14.63;;;8.27;;
69989;SDS011;57331;52.054;5.294;2022-09-13T05:16:38;15.30;;;8.60;;
69989;SDS011;57331;52.054;5.294;2022-09-13T05:19:05;14.10;;;7.90;;
69989;SDS011;57331;52.054;5.294;2022-09-13T05:21:32;16.33;;;8.60;;
69989;SDS011;57331;52.054;5.294;2022-09-13T05:24:00;15.77;;;8.52;;
69989;SDS011;57331;52.054;5.294;2022-09-13T05:26:28;16.40;;;8.70;;
69989;SDS011;57331;52.054;5.294;2022-09-13T05:28:58;14.55;;;8.73;;
69989;SDS011;57331;52.054;5.294;2022-09-13T05:31:33;17.20;;;8.63;;
69989;SDS011;57331;52.054;5.294;2022-09-13T05:34:03;17.52;;;9.48;;
69989;SDS011;57331;52.054;5.294;2022-09-13T05:36:33;14.82;;;9.02;;
69989;SDS011;57331;52.054;5.294;2022-09-13T05:39:00;14.50;;;8.73;;
69989;SDS011;57331;52.054;5.294;2022-09-13T05:41:47;17.50;;;9.23;;
69989;SDS011;57331;52.054;5.294;2022-09-13T05:44:15;18.80;;;9.70;;
69989;SDS011;57331;52.054;5.294;2022-09-13T05:46:46;16.23;;;9.02;;
69989;SDS011;57331;52.054;5.294;2022-09-13T05:49:13;19.48;;;9.68;;
69989;SDS011;57331;52.054;5.294;2022-09-13T05:51:41;19.45;;;9.43;;
69989;SDS011;57331;52.054;5.294;2022-09-13T05:54:10;17.02;;;10.05;;
69989;SDS011;57331;52.054;5.294;2022-09-13T05:56:38;17.88;;;9.35;;
69989;SDS011;57331;52.054;5.294;2022-09-13T05:59:10;19.30;;;9.63;;
69989;SDS011;57331;52.054;5.294;2022-09-13T06:01:37;17.55;;;9.68;;
69989;SDS011;57331;52.054;5.294;2022-09-13T06:04:05;17.30;;;9.63;;
69989;SDS011;57331;52.054;5.294;2022-09-13T06:06:33;19.25;;;9.50;;
69989;SDS011;57331;52.054;5.294;2022-09-13T06:09:00;16.38;;;8.65;;
69989;SDS011;57331;52.054;5.294;2022-09-13T06:11:28;16.50;;;9.32;;
69989;SDS011;57331;52.054;5.294;2022-09-13T06:13:55;19.23;;;9.25;;
69989;SDS011;57331;52.054;5.294;2022-09-13T06:16:22;18.73;;;9.30;;
69989;SDS011;57331;52.054;5.294;2022-09-13T06:18:49;18.13;;;10.15;;
69989;SDS011;57331;52.054;5.294;2022-09-13T06:21:17;21.63;;;9.13;;
69989;SDS011;57331;52.054;5.294;2022-09-13T06:23:46;19.05;;;9.02;;
69989;SDS011;57331;52.054;5.294;2022-09-13T06:26:15;18.95;;;10.65;;
69989;SDS011;57331;52.054;5.294;2022-09-13T06:28:47;17.30;;;9.82;;
69989;SDS011;57331;52.054;5.294;2022-09-13T06:31:17;47.15;;;25.38;;
69989;SDS011;57331;52.054;5.294;2022-09-13T06:33:45;22.17;;;11.48;;
69989;SDS011;57331;52.054;5.294;2022-09-13T06:36:14;25.83;;;11.95;;
69989;SDS011;57331;52.054;5.294;2022-09-13T06:38:46;26.30;;;11.00;;
69989;SDS011;57331;52.054;5.294;2022-09-13T06:41:17;27.15;;;11.77;;
69989;SDS011;57331;52.054;5.294;2022-09-13T06:43:45;23.00;;;11.05;;
69989;SDS011;57331;52.054;5.294;2022-09-13T06:46:14;19.77;;;10.40;;
69989;SDS011;57331;52.054;5.294;2022-09-13T06:48:49;22.97;;;10.57;;
69989;SDS011;57331;52.054;5.294;2022-09-13T06:51:21;19.17;;;11.23;;
69989;SDS011;57331;52.054;5.294;2022-09-13T06:53:49;21.80;;;11.88;;
69989;SDS011;57331;52.054;5.294;2022-09-13T06:56:21;24.02;;;14.48;;
69989;SDS011;57331;52.054;5.294;2022-09-13T06:58:50;39.72;;;19.02;;
69989;SDS011;57331;52.054;5.294;2022-09-13T07:01:21;29.70;;;16.03;;
69989;SDS011;57331;52.054;5.294;2022-09-13T07:04:10;33.13;;;16.95;;
69989;SDS011;57331;52.054;5.294;2022-09-13T07:06:48;28.02;;;15.57;;
69989;SDS011;57331;52.054;5.294;2022-09-13T07:09:19;32.83;;;16.58;;
69989;SDS011;57331;52.054;5.294;2022-09-13T07:11:47;31.48;;;16.67;;
69989;SDS011;57331;52.054;5.294;2022-09-13T07:14:18;31.70;;;16.83;;
69989;SDS011;57331;52.054;5.294;2022-09-13T07:16:47;33.90;;;17.90;;
69989;SDS011;57331;52.054;5.294;2022-09-13T07:19:15;32.58;;;16.75;;
69989;SDS011;57331;52.054;5.294;2022-09-13T07:21:48;41.08;;;22.73;;
69989;SDS011;57331;52.054;5.294;2022-09-13T07:24:16;33.40;;;17.20;;
69989;SDS011;57331;52.054;5.294;2022-09-13T07:26:45;28.27;;;16.27;;
69989;SDS011;57331;52.054;5.294;2022-09-13T07:29:13;31.05;;;17.08;;
69989;SDS011;57331;52.054;5.294;2022-09-13T07:31:45;33.15;;;18.52;;
69989;SDS011;57331;52.054;5.294;2022-09-13T07:34:15;31.95;;;15.90;;
69989;SDS011;57331;52.054;5.294;2022-09-13T07:36:47;28.33;;;14.73;;
69989;SDS011;57331;52.054;5.294;2022-09-13T07:39:14;23.30;;;14.03;;
69989;SDS011;57331;52.054;5.294;2022-09-13T07:41:47;28.13;;;14.50;;
69989;SDS011;57331;52.054;5.294;2022-09-13T07:44:14;27.20;;;14.75;;
69989;SDS011;57331;52.054;5.294;2022-09-13T07:46:41;27.83;;;14.07;;
69989;SDS011;57331;52.054;5.294;2022-09-13T07:49:10;26.98;;;13.85;;
69989;SDS011;57331;52.054;5.294;2022-09-13T07:51:39;26.73;;;13.97;;
69989;SDS011;57331;52.054;5.294;2022-09-13T07:54:11;23.33;;;14.18;;
69989;SDS011;57331;52.054;5.294;2022-09-13T07:56:44;23.75;;;12.80;;
69989;SDS011;57331;52.054;5.294;2022-09-13T07:59:12;26.77;;;12.60;;
69989;SDS011;57331;52.054;5.294;2022-09-13T08:01:41;22.60;;;11.05;;
69989;SDS011;57331;52.054;5.294;2022-09-13T08:04:11;18.93;;;10.83;;
69989;SDS011;57331;52.054;5.294;2022-09-13T08:06:39;20.55;;;9.68;;
69989;SDS011;57331;52.054;5.294;2022-09-13T08:09:08;15.63;;;8.70;;
69989;SDS011;57331;52.054;5.294;2022-09-13T08:11:37;16.77;;;8.52;;
69989;SDS011;57331;52.054;5.294;2022-09-13T08:14:06;15.80;;;8.45;;
69989;SDS011;57331;52.054;5.294;2022-09-13T08:16:35;15.80;;;8.63;;
69989;SDS011;57331;52.054;5.294;2022-09-13T08:19:03;15.52;;;7.43;;
69989;SDS011;57331;52.054;5.294;2022-09-13T08:21:34;15.23;;;7.03;;
69989;SDS011;57331;52.054;5.294;2022-09-13T08:24:03;13.35;;;6.90;;
69989;SDS011;57331;52.054;5.294;2022-09-13T08:26:32;18.42;;;6.38;;
69989;SDS011;57331;52.054;5.294;2022-09-13T08:29:03;13.73;;;6.07;;
69989;SDS011;57331;52.054;5.294;2022-09-13T08:31:31;12.52;;;6.05;;
69989;SDS011;57331;52.054;5.294;2022-09-13T08:33:58;10.52;;;6.30;;
69989;SDS011;57331;52.054;5.294;2022-09-13T08:36:26;9.60;;;5.28;;
69989;SDS011;57331;52.054;5.294;2022-09-13T08:38:56;9.25;;;5.10;;
69989;SDS011;57331;52.054;5.294;2022-09-13T08:47:21;12.73;;;4.65;;
69989;SDS011;57331;52.054;5.294;2022-09-13T08:52:46;8.85;;;4.30;;
69989;SDS011;57331;52.054;5.294;2022-09-13T08:55:24;7.00;;;4.00;;
69989;SDS011;57331;52.054;5.294;2022-09-13T09:03:48;7.68;;;3.20;;
69989;SDS011;57331;52.054;5.294;2022-09-13T09:06:33;21.02;;;11.18;;
69989;SDS011;57331;52.054;5.294;2022-09-13T09:09:02;12.23;;;5.40;;
69989;SDS011;57331;52.054;5.294;2022-09-13T09:11:41;8.07;;;3.30;;
69989;SDS011;57331;52.054;5.294;2022-09-13T09:14:17;6.60;;;2.70;;
69989;SDS011;57331;52.054;5.294;2022-09-13T09:16:58;7.60;;;2.92;;
69989;SDS011;57331;52.054;5.294;2022-09-13T09:19:36;7.30;;;2.63;;
69989;SDS011;57331;52.054;5.294;2022-09-13T09:22:17;6.23;;;2.50;;
69989;SDS011;57331;52.054;5.294;2022-09-13T09:24:53;7.57;;;2.63;;
69989;SDS011;57331;52.054;5.294;2022-09-13T09:27:21;5.03;;;2.40;;
69989;SDS011;57331;52.054;5.294;2022-09-13T09:29:49;6.07;;;2.67;;
69989;SDS011;57331;52.054;5.294;2022-09-13T09:40:45;7.55;;;2.40;;
69989;SDS011;57331;52.054;5.294;2022-09-13T09:43:19;5.25;;;2.20;;
69989;SDS011;57331;52.054;5.294;2022-09-13T09:45:52;5.68;;;2.10;;
69989;SDS011;57331;52.054;5.294;2022-09-13T09:48:23;7.00;;;2.83;;
69989;SDS011;57331;52.054;5.294;2022-09-13T09:50:55;6.22;;;2.35;;
69989;SDS011;57331;52.054;5.294;2022-09-13T09:53:26;4.95;;;2.00;;
69989;SDS011;57331;52.054;5.294;2022-09-13T09:56:05;10.40;;;2.20;;
69989;SDS011;57331;52.054;5.294;2022-09-13T09:58:49;5.30;;;2.25;;
69989;SDS011;57331;52.054;5.294;2022-09-13T10:01:18;6.43;;;1.80;;
69989;SDS011;57331;52.054;5.294;2022-09-13T10:03:51;6.47;;;1.92;;
69989;SDS011;57331;52.054;5.294;2022-09-13T10:06:25;4.63;;;2.00;;
69989;SDS011;57331;52.054;5.294;2022-09-13T10:09:03;4.65;;;1.85;;
69989;SDS011;57331;52.054;5.294;2022-09-13T10:19:56;6.80;;;2.00;;
69989;SDS011;57331;52.054;5.294;2022-09-13T10:22:30;6.95;;;2.20;;
69989;SDS011;57331;52.054;5.294;2022-09-13T10:27:57;4.77;;;1.90;;
69989;SDS011;57331;52.054;5.294;2022-09-13T10:30:34;4.38;;;1.90;;
69989;SDS011;57331;52.054;5.294;2022-09-13T10:33:05;6.22;;;3.08;;
69989;SDS011;57331;52.054;5.294;2022-09-13T10:35:48;8.27;;;2.10;;
69989;SDS011;57331;52.054;5.294;2022-09-13T10:38:25;6.63;;;2.40;;
69989;SDS011;57331;52.054;5.294;2022-09-13T10:40:59;5.33;;;2.10;;
69989;SDS011;57331;52.054;5.294;2022-09-13T10:43:32;4.75;;;2.13;;
69989;SDS011;57331;52.054;5.294;2022-09-13T10:46:02;6.28;;;2.08;;
69989;SDS011;57331;52.054;5.294;2022-09-13T10:48:42;6.03;;;2.42;;
69989;SDS011;57331;52.054;5.294;2022-09-13T10:54:09;4.17;;;1.70;;
69989;SDS011;57331;52.054;5.294;2022-09-13T10:56:48;5.10;;;2.08;;
69989;SDS011;57331;52.054;5.294;2022-09-13T11:04:53;5.45;;;2.40;;
69989;SDS011;57331;52.054;5.294;2022-09-13T11:07:31;6.93;;;2.90;;
69989;SDS011;57331;52.054;5.294;2022-09-13T11:10:12;4.93;;;2.53;;
69989;SDS011;57331;52.054;5.294;2022-09-13T11:15:31;6.45;;;2.67;;
69989;SDS011;57331;52.054;5.294;2022-09-13T11:20:56;5.37;;;2.40;;
69989;SDS011;57331;52.054;5.294;2022-09-13T11:26:09;5.70;;;2.90;;
69989;SDS011;57331;52.054;5.294;2022-09-13T11:31:40;6.63;;;2.50;;
69989;SDS011;57331;52.054;5.294;2022-09-13T11:40:31;7.25;;;2.20;;
69989;SDS011;57331;52.054;5.294;2022-09-13T11:48:27;4.23;;;2.07;;
69989;SDS011;57331;52.054;5.294;2022-09-13T11:54:00;7.10;;;2.38;;
69989;SDS011;57331;52.054;5.294;2022-09-13T11:56:41;3.92;;;2.30;;
69989;SDS011;57331;52.054;5.294;2022-09-13T11:59:14;5.38;;;2.53;;
69989;SDS011;57331;52.054;5.294;2022-09-13T12:01:54;4.60;;;2.53;;
69989;SDS011;57331;52.054;5.294;2022-09-13T12:04:30;5.57;;;2.35;;
69989;SDS011;57331;52.054;5.294;2022-09-13T12:07:08;4.95;;;1.92;;
69989;SDS011;57331;52.054;5.294;2022-09-13T12:09:44;6.28;;;2.20;;
69989;SDS011;57331;52.054;5.294;2022-09-13T12:12:18;5.60;;;2.00;;
69989;SDS011;57331;52.054;5.294;2022-09-13T12:15:06;6.47;;;2.50;;
69989;SDS011;57331;52.054;5.294;2022-09-13T12:17:42;7.38;;;2.50;;
69989;SDS011;57331;52.054;5.294;2022-09-13T12:20:21;6.45;;;2.30;;
69989;SDS011;57331;52.054;5.294;2022-09-13T12:22:58;5.13;;;2.00;;
69989;SDS011;57331;52.054;5.294;2022-09-13T12:25:33;4.57;;;2.05;;
69989;SDS011;57331;52.054;5.294;2022-09-13T12:28:23;7.03;;;2.70;;
69989;SDS011;57331;52.054;5.294;2022-09-13T12:30:59;6.72;;;1.95;;
69989;SDS011;57331;52.054;5.294;2022-09-13T12:33:30;7.28;;;2.70;;
69989;SDS011;57331;52.054;5.294;2022-09-13T12:38:44;5.45;;;2.40;;
69989;SDS011;57331;52.054;5.294;2022-09-13T12:44:35;4.03;;;2.17;;
69989;SDS011;57331;52.054;5.294;2022-09-13T12:47:26;4.07;;;2.25;;
69989;SDS011;57331;52.054;5.294;2022-09-13T12:50:27;3.95;;;2.05;;
69989;SDS011;57331;52.054;5.294;2022-09-13T13:01:22;5.18;;;2.33;;
69989;SDS011;57331;52.054;5.294;2022-09-13T13:04:07;5.10;;;2.15;;
69989;SDS011;57331;52.054;5.294;2022-09-13T13:06:58;6.28;;;2.67;;
69989;SDS011;57331;52.054;5.294;2022-09-13T13:12:00;5.55;;;2.50;;
69989;SDS011;57331;52.054;5.294;2022-09-13T13:14:29;5.38;;;2.22;;
69989;SDS011;57331;52.054;5.294;2022-09-13T13:17:35;5.38;;;2.20;;
69989;SDS011;57331;52.054;5.294;2022-09-13T13:23:23;7.93;;;2.10;;
69989;SDS011;57331;52.054;5.294;2022-09-13T13:33:51;9.45;;;2.15;;
69989;SDS011;57331;52.054;5.294;2022-09-13T13:36:27;6.77;;;2.23;;
69989;SDS011;57331;52.054;5.294;2022-09-13T13:38:55;6.03;;;2.38;;
69989;SDS011;57331;52.054;5.294;2022-09-13T13:43:59;4.70;;;2.10;;
69989;SDS011;57331;52.054;5.294;2022-09-13T13:46:31;4.85;;;1.95;;
69989;SDS011;57331;52.054;5.294;2022-09-13T14:00:22;7.70;;;1.88;;
69989;SDS011;57331;52.054;5.294;2022-09-13T14:19:23;7.47;;;2.47;;
69989;SDS011;57331;52.054;5.294;2022-09-13T14:24:50;4.07;;;1.70;;
69989;SDS011;57331;52.054;5.294;2022-09-13T14:27:19;5.15;;;1.98;;
69989;SDS011;57331;52.054;5.294;2022-09-13T14:30:00;5.50;;;1.93;;
69989;SDS011;57331;52.054;5.294;2022-09-13T14:32:37;5.13;;;1.80;;
69989;SDS011;57331;52.054;5.294;2022-09-13T14:35:27;4.57;;;1.60;;
69989;SDS011;57331;52.054;5.294;2022-09-13T14:38:15;7.43;;;2.15;;
69989;SDS011;57331;52.054;5.294;2022-09-13T14:40:52;8.13;;;2.00;;
69989;SDS011;57331;52.054;5.294;2022-09-13T14:43:26;6.07;;;2.17;;
69989;SDS011;57331;52.054;5.294;2022-09-13T14:48:40;7.03;;;1.70;;
69989;SDS011;57331;52.054;5.294;2022-09-13T14:53:43;5.07;;;1.67;;
69989;SDS011;57331;52.054;5.294;2022-09-13T14:56:19;6.63;;;2.30;;
69989;SDS011;57331;52.054;5.294;2022-09-13T14:58:53;4.40;;;1.88;;
69989;SDS011;57331;52.054;5.294;2022-09-13T15:01:28;5.53;;;2.13;;
69989;SDS011;57331;52.054;5.294;2022-09-13T15:04:00;7.22;;;1.80;;
69989;SDS011;57331;52.054;5.294;2022-09-13T15:06:31;4.40;;;1.70;;
69989;SDS011;57331;52.054;5.294;2022-09-13T15:09:00;4.97;;;2.00;;
69989;SDS011;57331;52.054;5.294;2022-09-13T15:11:41;6.40;;;1.70;;
69989;SDS011;57331;52.054;5.294;2022-09-13T15:14:26;4.93;;;1.80;;
69989;SDS011;57331;52.054;5.294;2022-09-13T15:17:11;5.85;;;1.75;;
69989;SDS011;57331;52.054;5.294;2022-09-13T15:19:43;7.85;;;2.83;;
69989;SDS011;57331;52.054;5.294;2022-09-13T15:22:22;10.07;;;3.03;;
69989;SDS011;57331;52.054;5.294;2022-09-13T15:24:53;6.22;;;1.90;;
69989;SDS011;57331;52.054;5.294;2022-09-13T15:32:39;7.10;;;1.80;;
69989;SDS011;57331;52.054;5.294;2022-09-13T15:35:42;8.10;;;1.90;;
69989;SDS011;57331;52.054;5.294;2022-09-13T15:38:17;6.00;;;1.80;;
69989;SDS011;57331;52.054;5.294;2022-09-13T15:41:11;5.82;;;1.80;;
69989;SDS011;57331;52.054;5.294;2022-09-13T15:43:41;6.70;;;1.80;;
69989;SDS011;57331;52.054;5.294;2022-09-13T15:46:10;5.90;;;2.00;;
69989;SDS011;57331;52.054;5.294;2022-09-13T15:48:43;7.57;;;2.33;;
69989;SDS011;57331;52.054;5.294;2022-09-13T15:51:16;7.13;;;1.95;;
69989;SDS011;57331;52.054;5.294;2022-09-13T15:53:44;7.78;;;2.00;;
69989;SDS011;57331;52.054;5.294;2022-09-13T15:56:12;5.82;;;1.77;;
69989;SDS011;57331;52.054;5.294;2022-09-13T15:58:42;6.20;;;1.75;;
69989;SDS011;57331;52.054;5.294;2022-09-13T16:01:09;6.23;;;1.93;;
69989;SDS011;57331;52.054;5.294;2022-09-13T16:03:38;6.60;;;1.98;;
69989;SDS011;57331;52.054;5.294;2022-09-13T16:06:05;8.63;;;3.25;;
69989;SDS011;57331;52.054;5.294;2022-09-13T16:08:35;7.32;;;2.80;;
69989;SDS011;57331;52.054;5.294;2022-09-13T16:11:04;7.05;;;1.88;;
69989;SDS011;57331;52.054;5.294;2022-09-13T16:13:32;4.90;;;1.60;;
69989;SDS011;57331;52.054;5.294;2022-09-13T16:15:59;5.82;;;1.83;;
69989;SDS011;57331;52.054;5.294;2022-09-13T16:18:26;5.38;;;1.90;;
69989;SDS011;57331;52.054;5.294;2022-09-13T16:20:53;8.63;;;1.65;;
69989;SDS011;57331;52.054;5.294;2022-09-13T16:23:20;7.20;;;2.03;;
69989;SDS011;57331;52.054;5.294;2022-09-13T16:25:49;7.93;;;1.83;;
69989;SDS011;57331;52.054;5.294;2022-09-13T16:28:23;6.63;;;1.92;;
69989;SDS011;57331;52.054;5.294;2022-09-13T16:30:50;8.80;;;2.00;;
69989;SDS011;57331;52.054;5.294;2022-09-13T16:33:18;6.97;;;2.20;;
69989;SDS011;57331;52.054;5.294;2022-09-13T16:35:47;6.43;;;1.80;;
69989;SDS011;57331;52.054;5.294;2022-09-13T16:38:14;9.37;;;1.90;;
69989;SDS011;57331;52.054;5.294;2022-09-13T16:40:41;5.97;;;1.83;;
69989;SDS011;57331;52.054;5.294;2022-09-13T16:43:10;5.85;;;1.92;;
69989;SDS011;57331;52.054;5.294;2022-09-13T16:45:38;4.68;;;1.70;;
69989;SDS011;57331;52.054;5.294;2022-09-13T16:48:06;8.55;;;1.90;;
69989;SDS011;57331;52.054;5.294;2022-09-13T16:50:34;11.80;;;4.20;;
69989;SDS011;57331;52.054;5.294;2022-09-13T16:53:03;10.88;;;4.40;;
69989;SDS011;57331;52.054;5.294;2022-09-13T16:55:30;6.70;;;2.10;;
69989;SDS011;57331;52.054;5.294;2022-09-13T16:57:57;6.88;;;1.92;;
69989;SDS011;57331;52.054;5.294;2022-09-13T17:00:24;4.65;;;1.60;;
69989;SDS011;57331;52.054;5.294;2022-09-13T17:02:54;5.37;;;1.73;;
69989;SDS011;57331;52.054;5.294;2022-09-13T17:05:22;5.75;;;1.80;;
69989;SDS011;57331;52.054;5.294;2022-09-13T17:07:49;5.50;;;1.70;;
69989;SDS011;57331;52.054;5.294;2022-09-13T17:10:17;5.00;;;1.70;;
69989;SDS011;57331;52.054;5.294;2022-09-13T17:12:46;6.93;;;1.80;;
69989;SDS011;57331;52.054;5.294;2022-09-13T17:15:14;5.70;;;1.60;;
69989;SDS011;57331;52.054;5.294;2022-09-13T17:17:41;8.52;;;1.75;;
69989;SDS011;57331;52.054;5.294;2022-09-13T17:20:09;5.47;;;1.70;;
69989;SDS011;57331;52.054;5.294;2022-09-13T17:22:38;6.25;;;1.60;;
69989;SDS011;57331;52.054;5.294;2022-09-13T17:25:05;7.45;;;1.92;;
69989;SDS011;57331;52.054;5.294;2022-09-13T17:27:33;8.43;;;1.87;;
69989;SDS011;57331;52.054;5.294;2022-09-13T17:30:02;5.45;;;1.80;;
69989;SDS011;57331;52.054;5.294;2022-09-13T17:32:30;7.00;;;1.70;;
69989;SDS011;57331;52.054;5.294;2022-09-13T17:34:57;7.03;;;1.90;;
69989;SDS011;57331;52.054;5.294;2022-09-13T17:37:26;8.50;;;1.80;;
69989;SDS011;57331;52.054;5.294;2022-09-13T17:39:53;9.00;;;1.87;;
69989;SDS011;57331;52.054;5.294;2022-09-13T17:42:22;3.65;;;1.48;;
69989;SDS011;57331;52.054;5.294;2022-09-13T17:44:49;6.90;;;1.60;;
69989;SDS011;57331;52.054;5.294;2022-09-13T17:47:16;4.63;;;1.80;;
69989;SDS011;57331;52.054;5.294;2022-09-13T17:49:44;8.00;;;1.80;;
69989;SDS011;57331;52.054;5.294;2022-09-13T17:52:13;5.50;;;1.57;;
69989;SDS011;57331;52.054;5.294;2022-09-13T17:54:39;7.97;;;1.60;;
69989;SDS011;57331;52.054;5.294;2022-09-13T17:57:08;5.75;;;1.70;;
69989;SDS011;57331;52.054;5.294;2022-09-13T17:59:37;10.55;;;1.75;;
69989;SDS011;57331;52.054;5.294;2022-09-13T18:02:03;7.93;;;1.70;;
69989;SDS011;57331;52.054;5.294;2022-09-13T18:04:30;8.17;;;2.10;;
69989;SDS011;57331;52.054;5.294;2022-09-13T18:06:57;8.40;;;1.80;;
69989;SDS011;57331;52.054;5.294;2022-09-13T18:09:24;6.03;;;1.75;;
69989;SDS011;57331;52.054;5.294;2022-09-13T18:11:54;7.95;;;2.78;;
69989;SDS011;57331;52.054;5.294;2022-09-13T18:14:22;12.23;;;3.70;;
69989;SDS011;57331;52.054;5.294;2022-09-13T18:16:49;7.60;;;1.90;;